createdAt,value
2023-05-04T00:00:27.830Z,4.15
2023-05-04T00:02:55.547Z,3.80
2023-05-04T00:05:23.371Z,3.70
2023-05-04T00:07:51.005Z,3.60
2023-05-04T00:10:18.653Z,3.40
2023-05-04T00:12:46.514Z,3.38
2023-05-04T00:15:14.390Z,3.17
2023-05-04T00:17:42.139Z,4.63
2023-05-04T00:20:10.311Z,3.28
2023-05-04T00:22:37.857Z,3.15
2023-05-04T00:25:06.829Z,3.92
2023-05-04T00:27:35.632Z,3.85
2023-05-04T00:30:03.718Z,3.25
2023-05-04T00:32:31.463Z,3.40
2023-05-04T00:35:00.312Z,3.67
2023-05-04T00:37:27.939Z,3.63
2023-05-04T00:39:55.490Z,3.40
2023-05-04T00:42:23.121Z,3.50
2023-05-04T00:44:50.667Z,3.83
2023-05-04T00:47:19.908Z,3.67
2023-05-04T00:49:47.672Z,3.42
2023-05-04T00:52:15.831Z,3.30
2023-05-04T00:54:46.702Z,4.10
2023-05-04T00:57:16.061Z,3.33
2023-05-04T00:59:43.590Z,3.63
2023-05-04T01:02:11.213Z,3.35
2023-05-04T01:04:38.754Z,3.80
2023-05-04T01:07:22.727Z,3.35
2023-05-04T01:10:10.221Z,3.55
2023-05-04T01:13:12.185Z,3.72
2023-05-04T01:15:40.943Z,3.70
2023-05-04T01:18:08.717Z,3.60
2023-05-04T01:20:36.488Z,3.80
2023-05-04T01:23:04.490Z,3.65
2023-05-04T01:25:54.596Z,3.30
2023-05-04T01:28:35.035Z,3.88
2023-05-04T01:31:03.895Z,3.42
2023-05-04T01:33:32.325Z,4.15
2023-05-04T01:36:00.326Z,4.00
2023-05-04T01:38:28.878Z,3.72
2023-05-04T01:40:57.487Z,3.83
2023-05-04T01:43:25.299Z,3.85
2023-05-04T01:45:52.838Z,3.58
2023-05-04T01:48:20.416Z,3.85
2023-05-04T01:50:48.182Z,4.30
2023-05-04T01:53:15.747Z,3.53
2023-05-04T01:55:43.258Z,3.22
2023-05-04T01:58:11.000Z,4.18
2023-05-04T02:00:38.689Z,3.88
2023-05-04T02:03:06.765Z,4.10
2023-05-04T02:05:34.384Z,3.75
2023-05-04T02:08:01.931Z,4.25
2023-05-04T02:10:29.554Z,4.18
2023-05-04T02:12:57.293Z,4.00
2023-05-04T02:15:24.804Z,4.15
2023-05-04T02:17:52.340Z,4.00
2023-05-04T02:20:20.338Z,4.00
2023-05-04T02:22:47.844Z,3.95
2023-05-04T02:25:16.080Z,4.13
2023-05-04T02:27:43.712Z,4.25
2023-05-04T02:30:11.973Z,3.97
2023-05-04T02:32:39.529Z,3.97
2023-05-04T02:35:07.809Z,3.88
2023-05-04T02:37:35.421Z,3.83
2023-05-04T02:40:04.376Z,3.60
2023-05-04T02:42:32.490Z,3.92
2023-05-04T02:45:00.015Z,4.00
2023-05-04T02:47:27.551Z,4.10
2023-05-04T02:49:55.123Z,3.97
2023-05-04T02:52:22.716Z,3.60
2023-05-04T02:54:52.355Z,3.42
2023-05-04T02:57:20.851Z,3.95
2023-05-04T02:59:48.460Z,4.57
2023-05-04T03:02:16.063Z,3.50
2023-05-04T03:04:43.696Z,3.63
2023-05-04T03:07:11.977Z,4.28
2023-05-04T03:09:39.603Z,4.30
2023-05-04T03:12:07.278Z,4.20
2023-05-04T03:14:34.825Z,4.20
2023-05-04T03:17:02.787Z,3.72
2023-05-04T03:19:30.322Z,4.28
2023-05-04T03:21:57.881Z,4.15
2023-05-04T03:24:25.751Z,4.60
2023-05-04T03:26:53.375Z,4.60
2023-05-04T03:29:20.877Z,4.18
2023-05-04T03:31:48.420Z,4.25
2023-05-04T03:34:18.350Z,3.97
2023-05-04T03:36:46.092Z,4.15
2023-05-04T03:39:13.576Z,4.93
2023-05-04T03:41:41.099Z,4.97
2023-05-04T03:44:08.972Z,4.70
2023-05-04T03:46:36.606Z,4.75
2023-05-04T03:49:04.193Z,4.97
2023-05-04T03:51:31.669Z,4.50
2023-05-04T03:53:59.939Z,4.13
2023-05-04T03:56:27.974Z,4.50
2023-05-04T03:58:55.658Z,4.78
2023-05-04T04:01:23.591Z,3.75
2023-05-04T04:03:51.263Z,4.07
2023-05-04T04:06:19.372Z,3.95
2023-05-04T04:08:46.980Z,4.18
2023-05-04T04:11:15.949Z,4.22
2023-05-04T04:13:43.749Z,4.00
2023-05-04T04:16:11.689Z,4.30
2023-05-04T04:18:39.728Z,4.70
2023-05-04T04:21:07.440Z,3.88
2023-05-04T04:23:34.928Z,4.50
2023-05-04T04:26:02.539Z,4.05
2023-05-04T04:28:30.048Z,4.55
2023-05-04T04:30:57.587Z,4.25
2023-05-04T04:33:25.468Z,4.18
2023-05-04T04:35:53.321Z,4.32
2023-05-04T04:38:21.553Z,4.00
2023-05-04T04:40:49.122Z,4.50
2023-05-04T04:43:16.681Z,3.88
2023-05-04T04:45:45.377Z,4.55
2023-05-04T04:48:13.370Z,5.75
2023-05-04T04:50:41.312Z,4.68
2023-05-04T04:53:09.027Z,5.88
2023-05-04T04:55:36.623Z,5.70
2023-05-04T04:58:04.220Z,5.40
2023-05-04T05:00:31.721Z,5.95
2023-05-04T05:02:59.314Z,5.60
2023-05-04T05:05:27.406Z,5.40
2023-05-04T05:07:55.319Z,5.57
2023-05-04T05:10:23.062Z,5.47
2023-05-04T05:12:51.280Z,5.25
2023-05-04T05:15:18.919Z,5.93
2023-05-04T05:17:46.621Z,5.72
2023-05-04T05:20:15.435Z,5.28
2023-05-04T05:22:43.306Z,5.60
2023-05-04T05:25:13.554Z,5.28
2023-05-04T05:27:41.307Z,5.35
2023-05-04T05:30:09.106Z,5.65
2023-05-04T05:32:36.691Z,5.40
2023-05-04T05:35:05.385Z,6.13
2023-05-04T05:37:33.145Z,5.22
2023-05-04T05:40:00.996Z,5.18
2023-05-04T05:42:30.696Z,5.75
2023-05-04T05:44:58.522Z,5.40
2023-05-04T05:47:26.095Z,5.35
2023-05-04T05:49:54.429Z,5.75
2023-05-04T05:52:21.924Z,4.93
2023-05-04T05:54:49.456Z,5.32
2023-05-04T05:57:17.030Z,5.07
2023-05-04T05:59:44.897Z,5.65
2023-05-04T06:02:14.999Z,5.57
2023-05-04T06:04:43.462Z,5.28
2023-05-04T06:07:11.347Z,5.10
2023-05-04T06:09:38.867Z,5.30
2023-05-04T06:12:12.290Z,5.25
2023-05-04T06:14:40.247Z,4.82
2023-05-04T06:17:07.754Z,4.70
2023-05-04T06:19:36.566Z,4.78
2023-05-04T06:22:04.397Z,4.72
2023-05-04T06:24:32.816Z,4.03
2023-05-04T06:27:00.319Z,4.22
2023-05-04T06:29:27.856Z,4.13
2023-05-04T06:31:55.961Z,4.03
2023-05-04T06:34:23.529Z,4.15
2023-05-04T06:36:51.126Z,3.75
2023-05-04T06:39:18.867Z,4.18
2023-05-04T06:41:46.378Z,4.25
2023-05-04T06:44:13.951Z,4.10
2023-05-04T06:46:41.534Z,4.03
2023-05-04T06:49:09.094Z,4.03
2023-05-04T06:51:37.825Z,4.13
2023-05-04T06:54:05.729Z,3.50
2023-05-04T06:56:33.257Z,3.60
2023-05-04T06:59:00.853Z,3.83
2023-05-04T07:01:28.492Z,4.13
2023-05-04T07:03:58.455Z,3.72
2023-05-04T07:06:27.353Z,3.45
2023-05-04T07:08:54.868Z,3.38
2023-05-04T07:11:22.396Z,3.75
2023-05-04T07:13:50.618Z,3.22
2023-05-04T07:16:18.207Z,3.72
2023-05-04T07:18:45.732Z,3.88
2023-05-04T07:21:26.739Z,3.40
2023-05-04T07:23:55.644Z,3.58
2023-05-04T07:26:23.591Z,3.20
2023-05-04T07:28:51.122Z,3.25
2023-05-04T07:31:18.668Z,3.35
2023-05-04T07:33:46.234Z,3.10
2023-05-04T07:36:13.782Z,3.60
2023-05-04T07:38:41.816Z,3.03
2023-05-04T07:41:09.382Z,3.20
2023-05-04T07:43:36.862Z,2.80
2023-05-04T07:46:04.526Z,3.28
2023-05-04T07:48:34.640Z,3.33
2023-05-04T07:51:02.192Z,3.00
2023-05-04T07:53:29.747Z,3.33
2023-05-04T07:56:01.113Z,2.90
2023-05-04T07:58:28.625Z,2.88
2023-05-04T08:00:56.335Z,3.00
2023-05-04T08:03:23.873Z,3.42
2023-05-04T08:05:51.404Z,2.72
2023-05-04T08:08:18.935Z,2.80
2023-05-04T08:10:46.480Z,2.70
2023-05-04T08:13:14.074Z,2.88
2023-05-04T08:15:41.668Z,2.60
2023-05-04T08:18:09.673Z,2.70
2023-05-04T08:20:37.471Z,2.55
2023-05-04T08:23:05.267Z,3.03
2023-05-04T08:25:32.826Z,2.20
2023-05-04T08:28:00.345Z,2.80
2023-05-04T08:30:27.951Z,2.60
2023-05-04T08:32:59.434Z,2.83
2023-05-04T08:35:28.113Z,2.53
2023-05-04T08:37:55.812Z,2.70
2023-05-04T08:40:24.387Z,2.47
2023-05-04T08:42:52.671Z,2.85
2023-05-04T08:45:21.810Z,2.42
2023-05-04T08:47:49.498Z,2.50
2023-05-04T08:50:17.304Z,2.40
2023-05-04T08:52:49.133Z,2.38
2023-05-04T08:55:17.563Z,2.70
2023-05-04T08:57:45.549Z,2.90
2023-05-04T09:00:16.650Z,2.45
2023-05-04T09:02:46.360Z,2.35
2023-05-04T09:05:14.725Z,2.50
2023-05-04T09:07:42.874Z,2.55
2023-05-04T09:10:10.879Z,2.80
2023-05-04T09:12:38.497Z,2.60
2023-05-04T09:15:19.742Z,2.83
2023-05-04T09:18:05.597Z,2.65
2023-05-04T09:20:47.556Z,2.70
2023-05-04T09:23:17.983Z,2.88
2023-05-04T09:25:53.569Z,2.63
2023-05-04T09:28:33.756Z,2.25
2023-05-04T09:31:02.651Z,2.25
2023-05-04T09:33:30.511Z,2.45
2023-05-04T09:36:00.663Z,1.85
2023-05-04T09:38:30.235Z,2.08
2023-05-04T09:40:57.815Z,2.33
2023-05-04T09:43:25.501Z,2.42
2023-05-04T09:45:53.463Z,2.35
2023-05-04T09:48:26.991Z,2.70
2023-05-04T09:50:58.642Z,2.45
2023-05-04T09:53:30.424Z,2.22
2023-05-04T09:56:07.984Z,2.05
2023-05-04T09:58:36.992Z,2.08
2023-05-04T10:01:05.244Z,2.47
2023-05-04T10:03:33.666Z,2.63
2023-05-04T10:06:04.534Z,2.50
2023-05-04T10:08:32.832Z,2.45
2023-05-04T10:11:00.612Z,2.15
2023-05-04T10:13:28.305Z,2.58
2023-05-04T10:16:20.801Z,2.10
2023-05-04T10:19:23.192Z,2.47
2023-05-04T10:22:08.747Z,2.30
2023-05-04T10:25:10.552Z,2.47
2023-05-04T10:27:56.329Z,2.40
2023-05-04T10:30:24.344Z,2.22
2023-05-04T10:32:59.190Z,2.30
2023-05-04T10:35:28.027Z,2.70
2023-05-04T10:37:56.739Z,2.40
2023-05-04T10:40:40.657Z,2.50
2023-05-04T10:43:11.488Z,2.42
2023-05-04T10:45:42.113Z,2.05
2023-05-04T10:48:10.721Z,2.05
2023-05-04T10:50:45.261Z,2.83
2023-05-04T10:53:14.565Z,2.40
2023-05-04T10:55:48.911Z,2.20
2023-05-04T10:58:19.314Z,2.45
2023-05-04T11:00:48.419Z,2.58
2023-05-04T11:03:16.314Z,2.20
2023-05-04T11:05:45.750Z,2.00
2023-05-04T11:08:19.932Z,2.80
2023-05-04T11:10:48.853Z,2.10
2023-05-04T11:13:17.016Z,2.22
2023-05-04T11:15:54.092Z,2.58
2023-05-04T11:18:35.460Z,2.65
2023-05-04T11:21:03.433Z,2.67
2023-05-04T11:23:31.425Z,2.42
2023-05-04T11:25:59.173Z,2.67
2023-05-04T11:28:36.804Z,2.85
2023-05-04T11:31:33.804Z,2.40
2023-05-04T11:34:01.433Z,2.40
2023-05-04T11:36:29.026Z,2.25
2023-05-04T11:38:57.798Z,2.53
2023-05-04T11:41:29.873Z,1.60
2023-05-04T11:43:58.905Z,2.50
2023-05-04T11:46:27.440Z,2.03
2023-05-04T11:48:55.055Z,2.30
2023-05-04T11:51:25.504Z,2.53
2023-05-04T11:53:54.450Z,2.78
2023-05-04T11:56:22.175Z,2.58
2023-05-04T11:58:49.697Z,1.95
2023-05-04T12:01:17.982Z,2.40
2023-05-04T12:03:53.827Z,2.30
2023-05-04T12:06:34.004Z,2.70
2023-05-04T12:09:06.532Z,2.63
2023-05-04T12:11:35.449Z,2.63
2023-05-04T12:14:09.961Z,2.38
2023-05-04T12:16:38.944Z,2.15
2023-05-04T12:19:12.957Z,2.13
2023-05-04T12:21:59.083Z,2.80
2023-05-04T12:24:28.001Z,2.47
2023-05-04T12:26:55.555Z,2.00
2023-05-04T12:29:23.162Z,2.33
2023-05-04T12:31:50.667Z,2.72
2023-05-04T12:34:18.514Z,2.40
2023-05-04T12:36:46.513Z,2.03
2023-05-04T12:39:14.416Z,2.13
2023-05-04T12:41:41.929Z,1.95
2023-05-04T12:44:11.875Z,1.73
2023-05-04T12:46:39.439Z,2.40
2023-05-04T12:49:07.124Z,1.90
2023-05-04T12:51:34.666Z,2.08
2023-05-04T12:54:02.166Z,2.30
2023-05-04T12:56:29.914Z,2.00
2023-05-04T12:58:57.485Z,2.00
2023-05-04T13:01:25.163Z,1.42
2023-05-04T13:03:52.732Z,1.77
2023-05-04T13:06:20.633Z,2.05
2023-05-04T13:08:48.542Z,1.92
2023-05-04T13:11:19.334Z,2.20
2023-05-04T13:13:46.977Z,2.03
2023-05-04T13:16:14.623Z,1.77
2023-05-04T13:18:42.156Z,2.00
2023-05-04T13:21:09.690Z,2.05
2023-05-04T13:23:37.206Z,1.90
2023-05-04T13:26:04.768Z,2.20
2023-05-04T13:28:32.325Z,1.80
2023-05-04T13:30:59.899Z,1.98
2023-05-04T13:33:29.432Z,1.83
2023-05-04T13:35:58.743Z,1.80
2023-05-04T13:38:26.416Z,2.10
2023-05-04T13:40:54.993Z,2.20
2023-05-04T13:43:22.928Z,2.10
2023-05-04T13:45:50.749Z,2.20
2023-05-04T13:48:18.277Z,1.75
2023-05-04T13:50:46.298Z,1.80
2023-05-04T13:53:13.850Z,1.63
2023-05-04T13:55:41.365Z,1.70
2023-05-04T13:58:09.000Z,1.90
2023-05-04T14:00:36.573Z,1.77
2023-05-04T14:03:04.759Z,1.77
2023-05-04T14:05:32.414Z,2.05
2023-05-04T14:07:59.878Z,1.75
2023-05-04T14:10:27.524Z,1.70
2023-05-04T14:12:55.244Z,1.60
2023-05-04T14:15:23.302Z,1.70
2023-05-04T14:17:51.218Z,1.70
2023-05-04T14:20:18.835Z,1.73
2023-05-04T14:22:46.393Z,1.65
2023-05-04T14:25:14.237Z,1.77
2023-05-04T14:27:44.836Z,1.75
2023-05-04T14:30:12.894Z,1.40
2023-05-04T14:32:41.331Z,1.10
2023-05-04T14:35:10.797Z,1.45
2023-05-04T14:37:40.073Z,1.15
2023-05-04T14:40:10.614Z,1.20
2023-05-04T14:42:38.660Z,1.10
2023-05-04T14:45:08.443Z,1.10
2023-05-04T14:47:36.506Z,1.25
2023-05-04T14:50:05.270Z,1.20
2023-05-04T14:52:33.088Z,1.05
2023-05-04T14:55:00.759Z,1.15
2023-05-04T14:57:28.228Z,1.05
2023-05-04T14:59:55.748Z,1.00
2023-05-04T15:02:23.772Z,0.90
2023-05-04T15:04:51.376Z,0.80
2023-05-04T15:07:21.003Z,1.20
2023-05-04T15:09:48.691Z,0.90
2023-05-04T15:12:16.830Z,1.08
2023-05-04T15:14:44.795Z,1.08
2023-05-04T15:17:12.478Z,0.98
2023-05-04T15:19:40.087Z,1.15
2023-05-04T15:22:08.015Z,1.00
2023-05-04T15:24:35.732Z,1.15
2023-05-04T15:27:03.828Z,1.10
2023-05-04T15:29:31.822Z,1.25
2023-05-04T15:31:59.490Z,1.20
2023-05-04T15:34:27.099Z,1.25
2023-05-04T15:36:55.539Z,1.00
2023-05-04T15:39:23.100Z,1.00
2023-05-04T15:41:50.699Z,1.50
2023-05-04T15:44:21.087Z,0.95
2023-05-04T15:46:48.884Z,1.10
2023-05-04T15:49:16.649Z,1.20
2023-05-04T15:51:44.131Z,1.20
2023-05-04T15:54:11.854Z,1.30
2023-05-04T15:56:39.402Z,1.13
2023-05-04T15:59:07.384Z,1.30
2023-05-04T16:01:35.004Z,1.20
2023-05-04T16:04:02.726Z,1.30
2023-05-04T16:06:30.230Z,1.27
2023-05-04T16:08:57.799Z,1.17
2023-05-04T16:11:25.330Z,1.20
2023-05-04T16:13:53.175Z,1.25
2023-05-04T16:16:20.910Z,1.15
2023-05-04T16:18:48.504Z,1.20
2023-05-04T16:21:16.102Z,1.30
2023-05-04T16:23:43.731Z,1.63
2023-05-04T16:26:11.460Z,1.50
2023-05-04T16:28:40.694Z,1.25
2023-05-04T16:31:10.253Z,1.00
2023-05-04T16:33:40.291Z,1.00
2023-05-04T16:36:08.291Z,1.40
2023-05-04T16:38:36.022Z,1.60
2023-05-04T16:41:03.734Z,1.77
2023-05-04T16:43:32.173Z,1.42
2023-05-04T16:45:59.837Z,1.10
2023-05-04T16:48:27.381Z,1.30
2023-05-04T16:50:55.777Z,1.20
2023-05-04T16:53:24.045Z,1.35
2023-05-04T16:55:51.658Z,1.13
2023-05-04T16:58:19.277Z,1.30
2023-05-04T17:00:46.818Z,1.30
2023-05-04T17:03:14.340Z,1.27
2023-05-04T17:05:42.098Z,1.30
2023-05-04T17:08:11.456Z,1.02
2023-05-04T17:10:39.776Z,1.13
2023-05-04T17:13:07.732Z,1.30
2023-05-04T17:15:35.190Z,1.60
2023-05-04T17:18:02.687Z,1.23
2023-05-04T17:20:32.282Z,1.75
2023-05-04T17:23:00.178Z,1.60
2023-05-04T17:25:28.099Z,1.38
2023-05-04T17:27:55.975Z,1.20
2023-05-04T17:30:23.586Z,1.17
2023-05-04T17:32:51.331Z,1.30
2023-05-04T17:35:25.156Z,1.17
2023-05-04T17:37:57.996Z,1.30
2023-05-04T17:40:27.955Z,1.30
2023-05-04T17:42:56.397Z,1.88
2023-05-04T17:45:24.016Z,1.33
2023-05-04T17:47:52.000Z,1.55
2023-05-04T17:50:20.094Z,1.30
2023-05-04T17:52:52.535Z,1.50
2023-05-04T17:55:20.172Z,1.40
2023-05-04T17:57:47.660Z,1.38
2023-05-04T18:00:15.629Z,1.20
2023-05-04T18:02:43.224Z,1.27
2023-05-04T18:05:10.952Z,1.58
2023-05-04T18:07:38.887Z,1.60
2023-05-04T18:10:06.993Z,1.60
2023-05-04T18:12:35.643Z,1.63
2023-05-04T18:15:08.381Z,1.30
2023-05-04T18:17:37.975Z,1.27
2023-05-04T18:20:08.351Z,1.23
2023-05-04T18:22:36.866Z,1.77
2023-05-04T18:25:04.966Z,1.50
2023-05-04T18:27:36.892Z,1.63
2023-05-04T18:30:06.010Z,1.60
2023-05-04T18:32:34.074Z,1.60
2023-05-04T18:35:01.993Z,1.90
2023-05-04T18:37:32.956Z,1.60
2023-05-04T18:40:00.684Z,2.05
2023-05-04T18:42:29.690Z,1.80
2023-05-04T18:44:57.370Z,1.77
2023-05-04T18:47:24.874Z,1.77
2023-05-04T18:49:54.752Z,1.90
2023-05-04T18:52:22.708Z,2.00
2023-05-04T18:54:50.167Z,1.50
2023-05-04T18:57:17.982Z,1.90
2023-05-04T18:59:45.688Z,1.90
2023-05-04T19:02:13.179Z,2.08
2023-05-04T19:04:40.859Z,1.70
2023-05-04T19:07:10.010Z,1.95
2023-05-04T19:09:37.811Z,1.80
2023-05-04T19:12:05.784Z,1.90
2023-05-04T19:14:33.610Z,2.05
2023-05-04T19:17:02.397Z,2.03
2023-05-04T19:19:30.707Z,1.90
2023-05-04T19:21:58.731Z,1.95
2023-05-04T19:24:26.372Z,1.67
2023-05-04T19:26:54.143Z,1.90
2023-05-04T19:29:21.831Z,1.95
2023-05-04T19:31:49.574Z,1.90
2023-05-04T19:34:17.978Z,2.05
2023-05-04T19:36:45.754Z,2.13
2023-05-04T19:39:13.463Z,2.30
2023-05-04T19:41:40.988Z,2.35
2023-05-04T19:44:10.298Z,2.17
2023-05-04T19:46:38.081Z,2.10
2023-05-04T19:49:05.875Z,2.00
2023-05-04T19:51:34.043Z,2.40
2023-05-04T19:54:01.664Z,2.00
2023-05-04T19:56:29.386Z,2.22
2023-05-04T19:58:56.942Z,2.20
2023-05-04T20:01:24.801Z,2.00
2023-05-04T20:03:52.553Z,1.90
2023-05-04T20:06:20.197Z,2.00
2023-05-04T20:08:47.779Z,2.20
2023-05-04T20:11:15.595Z,2.40
2023-05-04T20:13:43.195Z,2.67
2023-05-04T20:16:11.102Z,2.60
2023-05-04T20:18:38.778Z,2.38
2023-05-04T20:21:06.292Z,2.55
2023-05-04T20:23:36.696Z,2.80
2023-05-04T20:26:06.037Z,2.80
2023-05-04T20:28:33.648Z,2.47
2023-05-04T20:31:01.199Z,2.30
2023-05-04T20:33:28.993Z,2.95
2023-05-04T20:35:56.612Z,2.85
2023-05-04T20:38:24.508Z,2.42
2023-05-04T20:40:52.734Z,2.58
2023-05-04T20:43:20.661Z,2.67
2023-05-04T20:45:48.425Z,2.25
2023-05-04T20:48:15.959Z,2.30
2023-05-04T20:50:43.439Z,2.55
2023-05-04T20:53:10.982Z,2.70
2023-05-04T20:55:40.634Z,2.47
2023-05-04T20:58:08.255Z,2.63
2023-05-04T21:00:36.412Z,3.08
2023-05-04T21:03:04.196Z,2.65
2023-05-04T21:05:31.809Z,3.08
2023-05-04T21:07:59.491Z,3.33
2023-05-04T21:10:27.277Z,3.30
2023-05-04T21:12:54.804Z,3.28
2023-05-04T21:15:22.279Z,3.25
2023-05-04T21:17:50.189Z,3.20
2023-05-04T21:20:17.742Z,3.30
2023-05-04T21:22:45.368Z,3.58
2023-05-04T21:25:13.025Z,2.83
2023-05-04T21:27:41.641Z,3.60
2023-05-04T21:30:11.287Z,3.42
2023-05-04T21:32:39.123Z,3.40
2023-05-04T21:35:07.683Z,3.17
2023-05-04T21:37:35.376Z,3.00
2023-05-04T21:40:03.047Z,3.53
2023-05-04T21:42:30.492Z,3.63
2023-05-04T21:44:58.195Z,3.90
2023-05-04T21:47:26.622Z,3.17
2023-05-04T21:49:54.475Z,3.22
2023-05-04T21:52:22.338Z,3.45
2023-05-04T21:54:50.330Z,3.38
2023-05-04T21:57:17.922Z,3.63
2023-05-04T21:59:49.609Z,3.25
2023-05-04T22:02:17.448Z,3.30
2023-05-04T22:04:44.980Z,3.72
2023-05-04T22:07:12.803Z,3.72
2023-05-04T22:09:40.397Z,3.97
2023-05-04T22:12:08.357Z,3.50
2023-05-04T22:14:36.059Z,3.22
2023-05-04T22:17:03.774Z,3.58
2023-05-04T22:19:31.426Z,3.78
2023-05-04T22:21:58.924Z,3.83
2023-05-04T22:24:27.232Z,4.30
2023-05-04T22:26:54.796Z,3.88
2023-05-04T22:29:22.249Z,4.53
2023-05-04T22:31:49.795Z,3.67
2023-05-04T22:34:17.273Z,3.90
2023-05-04T22:36:44.757Z,3.85
2023-05-04T22:39:12.568Z,4.30
2023-05-04T22:41:40.074Z,3.78
2023-05-04T22:44:07.588Z,4.35
2023-05-04T22:46:35.195Z,3.90
2023-05-04T22:49:02.679Z,3.70
2023-05-04T22:51:30.395Z,3.55
2023-05-04T22:53:58.514Z,3.95
2023-05-04T22:56:26.110Z,4.55
2023-05-04T22:58:53.591Z,4.00
2023-05-04T23:01:21.496Z,4.07
2023-05-04T23:03:49.160Z,4.40
2023-05-04T23:06:16.746Z,4.45
2023-05-04T23:08:45.627Z,4.88
2023-05-04T23:11:13.085Z,3.90
2023-05-04T23:13:40.798Z,4.53
2023-05-04T23:16:08.515Z,5.18
2023-05-04T23:18:36.331Z,5.95
2023-05-04T23:21:04.162Z,5.72
2023-05-04T23:23:31.929Z,5.70
2023-05-04T23:25:59.650Z,6.55
2023-05-04T23:28:27.267Z,6.15
2023-05-04T23:30:55.929Z,5.28
2023-05-04T23:33:23.633Z,4.93
2023-05-04T23:35:55.607Z,4.53
2023-05-04T23:38:23.638Z,3.88
2023-05-04T23:41:03.748Z,3.80
2023-05-04T23:43:32.260Z,3.50
2023-05-04T23:46:04.558Z,3.03
2023-05-04T23:48:33.075Z,3.05
2023-05-04T23:51:04.858Z,3.03
2023-05-04T23:53:34.107Z,3.17
2023-05-04T23:56:04.339Z,3.10
2023-05-04T23:58:33.428Z,3.00
